Maitland, Australia
Current Conditions -  °F | °C
As of 8:00 AM on Monday 26 Jan 2015 (Local Time) from YPAD Reporting Station
Broken Clouds Broken Clouds  
Wind Chill: 63°   Ceiling: 6600
Heat Index: 63°   Visibility: 6mi
Dew Point: 46°   Wind: 13mph
Humidity: 55%   Direction: 150°SSE
Pressure: 30.06"   Gusts: NA
Location:  34.37°S, 137.67°E
Report Text: YPAD 252200Z 15011KT 9999 FEW035 BKN066 17/08 Q1018 FM0000 21012KT 9999 FEW045
Loading
Personal Weather Stations






























Interactive Weather Map New forecast layout! Learn more

10-Day Weather Forecast

Advertisements
Track Severe Weather on mobile